Latest Coastal Weather Observations for Cape Nelson

IDV60701

Issued at 5:22 pm EDT Saturday 21 January 2017 (issued every 10 minutes, with the page automatically refreshed every 10 minutes)

About coastal observations | Map of coastal stations | Coastal observations for VIC | Marine services | Other Formats
Station Details ID: 090184 Name: CAPE NELSON LIGHTHOUSE Lat: -38.43 Lon: 141.54 Height: 45.4 m
Data from the previous 72 hours. | See also: Recent months at Cape Nelson
Date/Time
EDT
Temp
°C
Wind Pressure Rain since
9am
mm
Weather Cloud Vis
km
Sea
Height
m
Swell
Dir  Spd
kts
Gust
kts
hPa Trend Height
m
Period
s
Dir
21/05:00pm 19.3 SSW 7 9 1015.9 - 0.0 - - - - - - -
21/04:30pm 19.5 SSW 7 9 1016.0 - 0.0 - - - - - - -
21/04:00pm 19.3 SSW 6 9 1016.1 - 0.0 - - - - - - -
21/03:30pm 20.2 S 5 9 1016.2 - 0.0 - - - - - - -
21/03:00pm 19.5 W 6 7 1016.3 - 0.0 - - - - - - -
21/02:30pm 20.1 WNW 5 9 1016.5 - 0.0 - - - - - - -
21/02:00pm 19.7 WNW 5 9 1016.6 - 0.0 - - - - - - -
21/01:30pm 19.5 WNW 6 8 1016.4 - 0.0 - - - - - - -
21/01:00pm 18.0 W 7 10 1016.5 - 0.0 - - - - - - -
21/12:30pm 18.0 WSW 7 9 1016.4 - 0.0 - - - - - - -
21/12:00pm 18.2 W 7 9 1016.4 - 0.0 - - - - - - -
21/11:30am 18.0 W 8 10 1016.5 - 0.0 - - - - - - -
21/11:00am 17.9 W 7 9 1016.5 - 0.0 - - - - - - -
21/10:30am 17.5 WNW 8 11 1016.2 - 0.0 - - - - - - -
21/10:00am 17.6 WNW 9 11 1016.1 - 0.0 - - - - - - -
21/09:30am 17.2 W 7 11 1015.9 - 0.0 - - - - - - -
21/09:00am 16.4 W 8 12 1015.4 - 0.0 - - - - - - -
21/08:30am 16.3 W 9 13 1015.0 - 0.0 - - - - - - -
21/08:00am 16.5 WNW 8 12 1014.5 - 0.0 - - - - - - -
21/07:30am 15.4 WNW 7 13 1014.2 - 0.0 - - - - - - -
21/07:00am 15.4 W 8 12 1013.6 - 0.0 - - - - - - -
21/06:30am 15.0 WNW 6 9 1013.4 - 0.0 - - - - - - -
21/06:00am 15.1 W 9 12 1013.0 - 0.0 - - - - - - -
21/05:30am 14.9 W 7 12 1012.7 - 0.0 - - - - - - -
21/05:00am 14.9 W 8 12 1012.5 - 0.0 - - - - - - -
21/04:30am 15.0 W 9 12 1012.3 - 0.0 - - - - - - -
21/04:00am 14.7 W 6 10 1012.2 - 0.0 - - - - - - -
21/03:30am 14.9 W 9 12 1012.4 - 0.0 - - - - - - -
21/03:00am 14.7 NW 6 9 1012.2 - 0.0 - - - - - - -
21/02:30am 14.4 NNE 5 7 1012.2 - 0.0 - - - - - - -
21/02:00am 14.7 ENE 5 8 1012.2 - 0.0 - - - - - - -
21/01:30am 14.5 NE 4 8 1012.1 - 0.0 - - - - - - -
21/01:00am 14.8 S 6 9 1012.1 - 0.0 - - - - - - -
21/12:30am 14.6 SSE 6 9 1011.9 - 0.0 - - - - - - -
21/12:00am 14.8 S 9 14 1011.9 - 0.0 - - - - - - -
 
Date/Time
EDT
Temp
°C
Wind Pressure Rain since
9am
mm
Weather Cloud Vis
km
Sea
Height
m
Swell
Dir  Spd
kts
Gust
kts
hPa Trend Height
m
Period
s
Dir
20/11:30pm 14.7 S 11 15 1011.8 - 0.0 - - - - - - -
20/11:00pm 15.0 S 12 16 1011.7 - 0.0 - - - - - - -
20/10:30pm 14.9 S 10 14 1011.5 - 0.0 - - - - - - -
20/10:00pm 14.8 S 11 14 1011.2 - 0.0 - - - - - - -
20/09:30pm 14.6 S 9 13 1010.8 - 0.0 - - - - - - -
20/09:00pm 14.7 S 10 13 1010.4 - 0.0 - - - - - - -
20/08:30pm 14.9 S 11 15 1010.2 - 0.0 - - - - - - -
20/08:00pm 15.5 S 11 15 1010.0 - 0.0 - - - - - - -
20/07:30pm 15.5 S 11 16 1009.8 - 0.0 - - - - - - -
20/07:00pm 16.1 S 13 17 1009.4 - 0.0 - - - - - - -
20/06:30pm 16.3 S 13 18 1008.9 - 0.0 - - - - - - -
20/06:00pm 16.0 S 15 20 1008.6 - 0.0 - - - - - - -
20/05:30pm 15.7 S 17 22 1008.7 - 0.0 - - - - - - -
20/05:00pm 15.7 S 16 24 1008.4 - 0.0 - - - - - - -
20/04:30pm 15.6 S 15 19 1008.1 - 0.0 - - - - - - -
20/04:00pm 16.3 S 17 23 1007.8 - 0.0 - - - - - - -
20/03:30pm 15.6 S 14 21 1007.4 - 0.0 - - - - - - -
20/03:00pm 16.7 S 13 20 1006.9 - 0.0 - - - - - - -
20/02:30pm 16.3 S 16 22 1006.5 - 0.0 - - - - - - -
20/02:00pm 15.2 S 17 23 1006.2 - 0.0 - - - - - - -
20/01:30pm 15.6 S 18 23 1005.8 - 0.0 - - - - - - -
20/01:00pm 16.4 S 18 25 1005.4 - 0.0 - - - - - - -
20/12:30pm 15.6 S 19 28 1004.9 - 0.0 - - - - - - -
20/12:00pm 15.9 S 17 29 1004.3 - 0.0 - - - - - - -
20/11:30am 15.6 S 15 27 1003.8 - 0.0 - - - - - - -
20/11:01am 15.3 S 15 27 1003.4 - 0.0 - - - - - - -
20/11:00am 15.0 S 14 24 1003.4 - 0.0 - - - - - - -
20/10:30am 15.0 SSE 12 21 1002.8 - 0.0 - - - - - - -
20/10:00am 15.0 SSE 9 18 1001.9 - 0.0 - - - - - - -
20/09:30am 14.6 S 17 23 1001.4 - 0.0 - - - - - - -
20/09:00am 14.3 S 20 27 1000.7 - 20.4 - - - - - - -
20/08:30am 13.9 S 22 29 1000.4 - 20.4 - - - - - - -
20/08:06am 14.0 S 20 30 999.8 - 20.4 - - - - - - -
20/08:00am 14.2 S 23 30 999.7 - 20.4 - - - - - - -
20/07:30am 13.9 S 21 29 998.8 - 20.4 - - - - - - -
20/07:09am 13.9 S 23 33 998.3 - 20.4 - - - - - - -
20/07:00am 13.9 S 24 31 998.2 - 20.4 - - - - - - -
20/06:31am 13.9 S 24 35 997.7 - 20.4 - - - - - - -
20/06:30am 13.9 S 24 33 997.6 - 20.4 - - - - - - -
20/06:00am 13.8 S 29 39 997.0 - 20.4 Recent precip. - - - - - -
20/05:59am 13.8 S 29 39 997.0 - 20.4 - - - - - - -
20/05:39am 14.3 S 23 35 996.6 - 20.4 - - - - - - -
20/05:32am 15.0 S 18 28 996.4 - 20.2 - - - - - - -
20/05:30am 15.2 S 17 26 996.4 - 20.2 - - - - - - -
20/05:28am 15.1 S 16 26 996.4 - 20.2 - - - - - - -
20/05:00am 15.3 S 5 14 996.1 - 19.4 - - - - - - -
20/04:30am 15.1 NW 2 4 995.3 - 18.6 - - - - - - -
20/04:00am 14.9 ENE 13 19 994.0 - 18.4 - - - - - - -
20/03:30am 14.8 NE 16 23 994.6 - 18.4 - - - - - - -
20/03:00am 14.8 ENE 18 25 995.5 - 18.4 Recent precip. - - - - - -
20/02:32am 14.8 ENE 20 30 995.2 - 18.2 - - - - - - -
20/02:30am 14.8 ENE 19 28 995.1 - 18.2 - - - - - - -
20/02:09am 15.3 E 21 31 995.5 - 18.0 - - - - - - -
20/02:00am 14.8 E 25 31 995.9 - 17.8 - - - - - - -
20/01:49am 14.4 E 18 28 997.8 - 17.4 - - - - - - -
20/01:48am 14.5 E 17 25 998.2 - 17.4 - - - - - - -
20/01:30am 14.5 ESE 13 20 1000.5 - 16.8 - - - - - - -
20/01:16am 14.6 ESE 11 17 1001.2 - 15.0 - - - - - - -
20/01:00am 14.4 SSE 15 19 1003.2 - 13.8 - - - - - - -
20/12:30am 14.7 S 13 19 1004.4 - 11.0 - - - - - - -
20/12:00am 16.0 S 15 19 1004.8 - 6.4 Rain - - - - - -
 
Date/Time
EDT
Temp
°C
Wind Pressure Rain since
9am
mm
Weather Cloud Vis
km
Sea
Height
m
Swell
Dir  Spd
kts
Gust
kts
hPa Trend Height
m
Period
s
Dir
19/11:30pm 16.6 S 12 17 1004.2 - 3.4 - - - - - - -
19/11:21pm 16.7 S 6 11 1004.0 - 2.6 - - - - - - -
19/11:00pm 16.8 E 15 21 1002.0 - 0.0 - - - - - - -
19/10:57pm 17.0 E 17 22 1000.8 - 0.0 - - - - - - -
19/10:30pm 16.7 E 19 24 998.7 - 0.0 - - - - - - -
19/10:00pm 16.5 E 20 25 999.6 - 0.0 - - - - - - -
19/09:30pm 16.5 ESE 16 22 1001.4 - 0.0 - - - - - - -
19/09:00pm 16.4 ESE 12 18 1002.6 - 0.0 - - - - - - -
19/08:30pm 16.2 E 17 20 1003.2 - 0.0 - - - - - - -
19/08:00pm 16.0 E 19 24 1002.6 - 0.0 - - - - - - -
19/07:30pm 16.5 E 19 24 1003.2 - 0.0 - - - - - - -
19/07:00pm 16.2 E 19 22 1004.2 - 0.0 - - - - - - -
19/06:30pm 15.8 E 17 21 1004.9 - 0.0 - - - - - - -
19/06:00pm 15.9 ESE 15 21 1005.3 - 0.0 - - - - - - -
19/05:30pm 15.9 E 13 20 1006.6 - 0.0 - - - - - - -
19/05:00pm 16.2 ESE 10 18 1007.6 - 0.0 - - - - - - -
19/04:30pm 16.5 ESE 10 16 1008.3 - 0.0 - - - - - - -
19/04:00pm 17.0 ESE 11 18 1008.4 - 0.0 - - - - - - -
19/03:30pm 17.2 ESE 13 18 1008.7 - 0.0 - - - - - - -
19/03:00pm 16.8 E 17 22 1009.2 - 0.0 - - - - - - -
19/02:30pm 16.8 ESE 15 21 1009.6 - 0.0 - - - - - - -
19/02:00pm 17.4 ESE 14 21 1010.4 - 0.0 - - - - - - -
19/01:30pm 17.3 E 16 20 1011.4 - 0.0 - - - - - - -
19/01:00pm 16.9 E 17 22 1012.0 - 0.0 - - - - - - -
19/12:30pm 17.2 E 18 23 1012.5 - 0.0 - - - - - - -
19/12:00pm 17.2 E 18 23 1012.9 - 0.0 - - - - - - -
19/11:30am 16.6 E 18 23 1013.3 - 0.0 - - - - - - -
19/11:00am 16.3 E 16 21 1013.5 - 0.0 - - - - - - -
19/10:30am 16.9 E 18 23 1013.8 - 0.0 - - - - - - -
19/10:00am 16.2 E 19 24 1014.1 - 0.0 - - - - - - -
19/09:30am 15.8 E 18 23 1014.4 - 0.0 - - - - - - -
19/09:00am 15.6 E 19 23 1014.5 - 0.0 - - - - - - -
19/08:30am 15.0 E 19 24 1014.7 - 0.0 - - - - - - -
19/08:00am 14.8 E 20 25 1014.8 - 0.0 - - - - - - -
19/07:30am 14.5 E 19 23 1014.7 - 0.0 - - - - - - -
19/07:00am 14.0 E 19 23 1014.8 - 0.0 - - - - - - -
19/06:30am 13.9 E 18 24 1014.9 - 0.0 - - - - - - -
19/06:00am 14.0 E 17 22 1015.0 - 0.0 - - - - - - -
19/05:30am 13.9 E 16 21 1015.1 - 0.0 - - - - - - -
19/05:00am 14.2 ESE 14 20 1015.2 - 0.0 - - - - - - -
19/04:30am 13.9 E 16 22 1015.2 - 0.0 - - - - - - -
19/04:00am 14.2 E 16 22 1015.3 - 0.0 - - - - - - -
19/03:30am 14.2 E 15 21 1015.6 - 0.0 - - - - - - -
19/03:00am 14.3 ESE 15 21 1015.9 - 0.0 - - - - - - -
19/02:30am 14.4 E 17 21 1016.2 - 0.0 - - - - - - -
19/02:00am 14.5 ESE 15 20 1016.6 - 0.0 - - - - - - -
19/01:30am 14.5 E 17 22 1016.8 - 0.0 - - - - - - -
19/01:00am 14.5 ESE 16 21 1017.1 - 0.0 - - - - - - -
19/12:30am 14.6 ESE 14 22 1017.4 - 0.0 - - - - - - -
19/12:00am 14.7 ESE 13 19 1017.6 - 0.0 - - - - - - -
 
Date/Time
EDT
Temp
°C
Wind Pressure Rain since
9am
mm
Weather Cloud Vis
km
Sea
Height
m
Swell
Dir  Spd
kts
Gust
kts
hPa Trend Height
m
Period
s
Dir
18/11:30pm 14.8 ESE 13 20 1017.8 - 0.0 - - - - - - -
18/11:00pm 15.0 ESE 14 21 1017.9 - 0.0 - - - - - - -
18/10:30pm 15.0 ESE 13 19 1017.9 - 0.0 - - - - - - -
18/10:00pm 14.8 ESE 12 21 1017.7 - 0.0 - - - - - - -
18/09:30pm 14.7 ESE 13 20 1017.8 - 0.0 - - - - - - -
18/09:00pm 14.8 ESE 10 17 1017.8 - 0.0 - - - - - - -
18/08:30pm 15.1 SE 13 19 1017.9 - 0.0 - - - - - - -
18/08:00pm 15.3 SE 12 18 1017.8 - 0.0 - - - - - - -
18/07:30pm 15.6 SE 14 19 1017.7 - 0.0 - - - - - - -
18/07:00pm 16.4 SE 13 17 1017.6 - 0.0 - - - - - - -
18/06:30pm 16.4 SE 12 17 1017.6 - 0.0 - - - - - - -
18/06:00pm 17.0 SSE 14 17 1017.6 - 0.0 - - - - - - -
18/05:30pm 17.3 SE 13 17 1017.7 - 0.0 - - - - - - -

Other Formats:

Comma delimited format used in spreadsheet applications
http://www.bom.gov.au/fwo/IDV60701/IDV60701.94826.axf

JavaScript Object Notation format (JSON) in row-major order
http://www.bom.gov.au/fwo/IDV60701/IDV60701.94826.json